sensor_id;sensor_type;location;lat;lon;timestamp;temperature;humidity
25352;DHT22;13304;48.464;8.712;2024-03-07T00:01:29;9.20;93.10
25352;DHT22;13304;48.464;8.712;2024-03-07T00:03:56;9.20;93.10
25352;DHT22;13304;48.464;8.712;2024-03-07T00:06:22;9.20;93.10
25352;DHT22;13304;48.464;8.712;2024-03-07T00:08:48;9.20;93.10
25352;DHT22;13304;48.464;8.712;2024-03-07T00:11:14;9.20;93.10
25352;DHT22;13304;48.464;8.712;2024-03-07T00:13:39;9.20;93.10
25352;DHT22;13304;48.464;8.712;2024-03-07T00:16:05;9.20;93.10
25352;DHT22;13304;48.464;8.712;2024-03-07T00:18:31;9.20;93.00
25352;DHT22;13304;48.464;8.712;2024-03-07T00:20:56;9.20;93.10
25352;DHT22;13304;48.464;8.712;2024-03-07T00:23:22;9.20;93.00
25352;DHT22;13304;48.464;8.712;2024-03-07T00:25:48;9.10;92.90
25352;DHT22;13304;48.464;8.712;2024-03-07T00:28:15;9.10;93.00
25352;DHT22;13304;48.464;8.712;2024-03-07T00:30:43;9.20;93.00
25352;DHT22;13304;48.464;8.712;2024-03-07T00:33:11;9.10;93.00
25352;DHT22;13304;48.464;8.712;2024-03-07T00:35:37;9.10;93.00
25352;DHT22;13304;48.464;8.712;2024-03-07T00:38:03;9.10;93.00
25352;DHT22;13304;48.464;8.712;2024-03-07T00:40:29;9.10;93.00
25352;DHT22;13304;48.464;8.712;2024-03-07T00:42:55;9.20;93.10
25352;DHT22;13304;48.464;8.712;2024-03-07T00:45:21;9.00;92.80
25352;DHT22;13304;48.464;8.712;2024-03-07T00:47:46;9.10;93.10
25352;DHT22;13304;48.464;8.712;2024-03-07T00:50:14;9.10;92.90
25352;DHT22;13304;48.464;8.712;2024-03-07T00:52:40;9.10;93.10
25352;DHT22;13304;48.464;8.712;2024-03-07T00:55:06;9.10;93.00
25352;DHT22;13304;48.464;8.712;2024-03-07T00:57:35;9.10;93.00
25352;DHT22;13304;48.464;8.712;2024-03-07T01:00:01;9.00;92.90
25352;DHT22;13304;48.464;8.712;2024-03-07T01:02:27;9.10;93.10
25352;DHT22;13304;48.464;8.712;2024-03-07T01:04:52;9.10;92.90
25352;DHT22;13304;48.464;8.712;2024-03-07T01:07:20;9.00;93.00
25352;DHT22;13304;48.464;8.712;2024-03-07T01:09:46;9.00;92.90
25352;DHT22;13304;48.464;8.712;2024-03-07T01:12:13;9.00;92.90
25352;DHT22;13304;48.464;8.712;2024-03-07T01:14:38;9.00;92.80
25352;DHT22;13304;48.464;8.712;2024-03-07T01:17:04;9.00;92.80
25352;DHT22;13304;48.464;8.712;2024-03-07T01:19:33;9.00;93.00
25352;DHT22;13304;48.464;8.712;2024-03-07T01:21:59;9.00;92.90
25352;DHT22;13304;48.464;8.712;2024-03-07T01:24:25;9.00;93.10
25352;DHT22;13304;48.464;8.712;2024-03-07T01:26:51;9.00;93.00
25352;DHT22;13304;48.464;8.712;2024-03-07T01:29:17;8.90;92.90
25352;DHT22;13304;48.464;8.712;2024-03-07T01:31:43;8.90;92.90
25352;DHT22;13304;48.464;8.712;2024-03-07T01:34:08;8.90;93.00
25352;DHT22;13304;48.464;8.712;2024-03-07T01:36:34;8.90;93.10
25352;DHT22;13304;48.464;8.712;2024-03-07T01:39:00;9.00;93.00
25352;DHT22;13304;48.464;8.712;2024-03-07T01:41:29;8.90;93.00
25352;DHT22;13304;48.464;8.712;2024-03-07T01:43:54;8.90;93.00
25352;DHT22;13304;48.464;8.712;2024-03-07T01:46:20;8.90;93.00
25352;DHT22;13304;48.464;8.712;2024-03-07T01:48:46;8.90;92.90
25352;DHT22;13304;48.464;8.712;2024-03-07T01:51:13;9.00;93.00
25352;DHT22;13304;48.464;8.712;2024-03-07T01:53:39;9.00;93.10
25352;DHT22;13304;48.464;8.712;2024-03-07T01:56:05;9.00;93.10
25352;DHT22;13304;48.464;8.712;2024-03-07T01:58:31;9.00;93.00
25352;DHT22;13304;48.464;8.712;2024-03-07T02:00:58;9.00;93.00
25352;DHT22;13304;48.464;8.712;2024-03-07T02:03:24;9.00;92.90
25352;DHT22;13304;48.464;8.712;2024-03-07T02:05:49;9.00;92.90
25352;DHT22;13304;48.464;8.712;2024-03-07T02:08:16;9.00;92.80
25352;DHT22;13304;48.464;8.712;2024-03-07T02:10:42;9.00;92.80
25352;DHT22;13304;48.464;8.712;2024-03-07T02:13:08;9.00;92.90
25352;DHT22;13304;48.464;8.712;2024-03-07T02:15:34;9.00;92.70
25352;DHT22;13304;48.464;8.712;2024-03-07T02:17:59;9.00;92.50
25352;DHT22;13304;48.464;8.712;2024-03-07T02:20:25;8.90;92.30
25352;DHT22;13304;48.464;8.712;2024-03-07T02:22:54;8.90;92.30
25352;DHT22;13304;48.464;8.712;2024-03-07T02:25:19;8.90;92.40
25352;DHT22;13304;48.464;8.712;2024-03-07T02:27:45;8.90;92.10
25352;DHT22;13304;48.464;8.712;2024-03-07T02:30:11;8.80;92.10
25352;DHT22;13304;48.464;8.712;2024-03-07T02:32:38;8.80;92.10
25352;DHT22;13304;48.464;8.712;2024-03-07T02:35:07;8.80;92.10
25352;DHT22;13304;48.464;8.712;2024-03-07T02:37:34;8.80;91.90
25352;DHT22;13304;48.464;8.712;2024-03-07T02:39:59;8.80;92.30
25352;DHT22;13304;48.464;8.712;2024-03-07T02:42:25;8.80;92.20
25352;DHT22;13304;48.464;8.712;2024-03-07T02:44:51;8.80;92.20
25352;DHT22;13304;48.464;8.712;2024-03-07T02:47:18;8.80;92.10
25352;DHT22;13304;48.464;8.712;2024-03-07T02:49:44;8.80;92.10
25352;DHT22;13304;48.464;8.712;2024-03-07T02:52:09;8.70;91.80
25352;DHT22;13304;48.464;8.712;2024-03-07T02:54:35;8.80;91.90
25352;DHT22;13304;48.464;8.712;2024-03-07T02:57:01;8.70;91.60
25352;DHT22;13304;48.464;8.712;2024-03-07T02:59:27;8.70;91.60
25352;DHT22;13304;48.464;8.712;2024-03-07T03:01:52;8.60;91.30
25352;DHT22;13304;48.464;8.712;2024-03-07T03:04:18;8.60;91.40
25352;DHT22;13304;48.464;8.712;2024-03-07T03:06:45;8.60;91.30
25352;DHT22;13304;48.464;8.712;2024-03-07T03:09:11;8.60;91.50
25352;DHT22;13304;48.464;8.712;2024-03-07T03:11:43;8.60;91.20
25352;DHT22;13304;48.464;8.712;2024-03-07T03:14:08;8.50;91.20
25352;DHT22;13304;48.464;8.712;2024-03-07T03:16:36;8.50;91.20
25352;DHT22;13304;48.464;8.712;2024-03-07T03:19:01;8.50;91.20
25352;DHT22;13304;48.464;8.712;2024-03-07T03:21:27;8.50;91.10
25352;DHT22;13304;48.464;8.712;2024-03-07T03:23:53;8.50;91.10
25352;DHT22;13304;48.464;8.712;2024-03-07T03:26:20;8.50;91.20
25352;DHT22;13304;48.464;8.712;2024-03-07T03:28:47;8.50;91.10
25352;DHT22;13304;48.464;8.712;2024-03-07T03:31:13;8.40;91.20
25352;DHT22;13304;48.464;8.712;2024-03-07T03:33:39;8.50;91.10
25352;DHT22;13304;48.464;8.712;2024-03-07T03:36:06;8.50;91.20
25352;DHT22;13304;48.464;8.712;2024-03-07T03:38:32;8.40;91.10
25352;DHT22;13304;48.464;8.712;2024-03-07T03:40:58;8.40;91.10
25352;DHT22;13304;48.464;8.712;2024-03-07T03:43:23;8.50;91.20
25352;DHT22;13304;48.464;8.712;2024-03-07T03:45:49;8.40;91.10
25352;DHT22;13304;48.464;8.712;2024-03-07T03:48:15;8.40;91.20
25352;DHT22;13304;48.464;8.712;2024-03-07T03:50:40;8.40;91.20
25352;DHT22;13304;48.464;8.712;2024-03-07T03:53:06;8.40;91.20
25352;DHT22;13304;48.464;8.712;2024-03-07T03:55:33;8.40;91.20
25352;DHT22;13304;48.464;8.712;2024-03-07T03:58:03;8.40;91.30
25352;DHT22;13304;48.464;8.712;2024-03-07T04:00:31;8.40;91.10
25352;DHT22;13304;48.464;8.712;2024-03-07T04:02:56;8.30;91.10
25352;DHT22;13304;48.464;8.712;2024-03-07T04:05:22;8.30;91.30
25352;DHT22;13304;48.464;8.712;2024-03-07T04:07:48;8.30;91.30
25352;DHT22;13304;48.464;8.712;2024-03-07T04:10:15;8.30;91.20
25352;DHT22;13304;48.464;8.712;2024-03-07T04:12:42;8.30;91.30
25352;DHT22;13304;48.464;8.712;2024-03-07T04:15:10;8.30;90.90
25352;DHT22;13304;48.464;8.712;2024-03-07T04:17:36;8.30;90.90
25352;DHT22;13304;48.464;8.712;2024-03-07T04:20:04;8.30;90.80
25352;DHT22;13304;48.464;8.712;2024-03-07T04:22:36;8.30;90.30
25352;DHT22;13304;48.464;8.712;2024-03-07T04:25:05;8.20;90.30
25352;DHT22;13304;48.464;8.712;2024-03-07T04:27:35;8.20;90.50
25352;DHT22;13304;48.464;8.712;2024-03-07T04:30:06;8.20;90.50
25352;DHT22;13304;48.464;8.712;2024-03-07T04:32:33;8.10;90.40
25352;DHT22;13304;48.464;8.712;2024-03-07T04:35:01;8.10;90.50
25352;DHT22;13304;48.464;8.712;2024-03-07T04:37:33;8.10;90.70
25352;DHT22;13304;48.464;8.712;2024-03-07T04:40:05;8.10;90.80
25352;DHT22;13304;48.464;8.712;2024-03-07T04:42:47;8.10;90.90
25352;DHT22;13304;48.464;8.712;2024-03-07T04:45:16;8.10;91.10
25352;DHT22;13304;48.464;8.712;2024-03-07T04:47:43;8.10;91.30
25352;DHT22;13304;48.464;8.712;2024-03-07T04:50:10;8.10;91.20
25352;DHT22;13304;48.464;8.712;2024-03-07T04:52:39;8.20;91.30
25352;DHT22;13304;48.464;8.712;2024-03-07T04:55:05;8.10;91.20
25352;DHT22;13304;48.464;8.712;2024-03-07T04:57:34;8.10;90.70
25352;DHT22;13304;48.464;8.712;2024-03-07T05:00:00;8.10;91.20
25352;DHT22;13304;48.464;8.712;2024-03-07T05:02:26;8.20;91.20
25352;DHT22;13304;48.464;8.712;2024-03-07T05:04:52;8.10;91.10
25352;DHT22;13304;48.464;8.712;2024-03-07T05:07:18;8.10;91.00
25352;DHT22;13304;48.464;8.712;2024-03-07T05:09:44;8.10;91.20
25352;DHT22;13304;48.464;8.712;2024-03-07T05:12:10;8.10;90.90
25352;DHT22;13304;48.464;8.712;2024-03-07T05:14:35;8.10;90.70
25352;DHT22;13304;48.464;8.712;2024-03-07T05:17:02;8.10;90.80
25352;DHT22;13304;48.464;8.712;2024-03-07T05:19:32;8.10;90.90
25352;DHT22;13304;48.464;8.712;2024-03-07T05:21:58;8.00;90.70
25352;DHT22;13304;48.464;8.712;2024-03-07T05:24:24;8.00;90.60
25352;DHT22;13304;48.464;8.712;2024-03-07T05:26:50;8.00;90.80
25352;DHT22;13304;48.464;8.712;2024-03-07T05:29:18;8.00;90.60
25352;DHT22;13304;48.464;8.712;2024-03-07T05:31:44;7.90;90.70
25352;DHT22;13304;48.464;8.712;2024-03-07T05:34:13;7.90;90.80
25352;DHT22;13304;48.464;8.712;2024-03-07T05:36:38;7.80;90.50
25352;DHT22;13304;48.464;8.712;2024-03-07T05:39:12;7.80;90.70
25352;DHT22;13304;48.464;8.712;2024-03-07T05:41:39;7.80;90.60
25352;DHT22;13304;48.464;8.712;2024-03-07T05:44:05;7.80;90.90
25352;DHT22;13304;48.464;8.712;2024-03-07T05:46:38;7.80;90.90
25352;DHT22;13304;48.464;8.712;2024-03-07T05:49:08;7.80;90.90
25352;DHT22;13304;48.464;8.712;2024-03-07T05:51:34;7.80;91.00
25352;DHT22;13304;48.464;8.712;2024-03-07T05:53:59;7.80;91.10
25352;DHT22;13304;48.464;8.712;2024-03-07T05:56:25;7.80;91.10
25352;DHT22;13304;48.464;8.712;2024-03-07T05:58:50;7.80;91.00
25352;DHT22;13304;48.464;8.712;2024-03-07T06:01:17;7.80;90.90
25352;DHT22;13304;48.464;8.712;2024-03-07T06:03:44;7.70;90.70
25352;DHT22;13304;48.464;8.712;2024-03-07T06:06:10;7.80;90.70
25352;DHT22;13304;48.464;8.712;2024-03-07T06:08:37;7.80;91.00
25352;DHT22;13304;48.464;8.712;2024-03-07T06:11:04;7.70;90.70
25352;DHT22;13304;48.464;8.712;2024-03-07T06:13:31;7.70;90.60
25352;DHT22;13304;48.464;8.712;2024-03-07T06:15:56;7.70;90.50
25352;DHT22;13304;48.464;8.712;2024-03-07T06:18:22;7.70;90.60
25352;DHT22;13304;48.464;8.712;2024-03-07T06:20:48;7.60;90.50
25352;DHT22;13304;48.464;8.712;2024-03-07T06:23:13;7.60;90.50
25352;DHT22;13304;48.464;8.712;2024-03-07T06:25:42;7.60;90.40
25352;DHT22;13304;48.464;8.712;2024-03-07T06:28:17;7.50;90.30
25352;DHT22;13304;48.464;8.712;2024-03-07T06:30:44;7.50;90.50
25352;DHT22;13304;48.464;8.712;2024-03-07T06:33:11;7.60;90.70
25352;DHT22;13304;48.464;8.712;2024-03-07T06:35:37;7.60;90.60
25352;DHT22;13304;48.464;8.712;2024-03-07T06:38:08;7.50;90.70
25352;DHT22;13304;48.464;8.712;2024-03-07T06:40:37;7.60;90.90
25352;DHT22;13304;48.464;8.712;2024-03-07T06:43:06;7.60;91.00
25352;DHT22;13304;48.464;8.712;2024-03-07T06:45:33;7.60;90.80
25352;DHT22;13304;48.464;8.712;2024-03-07T06:47:59;7.60;90.90
25352;DHT22;13304;48.464;8.712;2024-03-07T06:50:27;7.60;90.80
25352;DHT22;13304;48.464;8.712;2024-03-07T06:52:54;7.60;91.00
25352;DHT22;13304;48.464;8.712;2024-03-07T06:55:21;7.60;90.90
25352;DHT22;13304;48.464;8.712;2024-03-07T06:57:46;7.60;90.60
25352;DHT22;13304;48.464;8.712;2024-03-07T07:00:13;7.60;90.50
25352;DHT22;13304;48.464;8.712;2024-03-07T07:02:44;7.60;90.70
25352;DHT22;13304;48.464;8.712;2024-03-07T07:05:10;7.60;90.60
25352;DHT22;13304;48.464;8.712;2024-03-07T07:07:39;7.60;90.70
25352;DHT22;13304;48.464;8.712;2024-03-07T07:10:07;7.60;90.40
25352;DHT22;13304;48.464;8.712;2024-03-07T07:12:35;7.60;90.70
25352;DHT22;13304;48.464;8.712;2024-03-07T07:15:02;7.70;90.70
25352;DHT22;13304;48.464;8.712;2024-03-07T07:17:28;7.60;90.50
25352;DHT22;13304;48.464;8.712;2024-03-07T07:19:56;7.60;90.40
25352;DHT22;13304;48.464;8.712;2024-03-07T07:22:22;7.60;90.30
25352;DHT22;13304;48.464;8.712;2024-03-07T07:24:48;7.60;90.30
25352;DHT22;13304;48.464;8.712;2024-03-07T07:27:15;7.60;90.20
25352;DHT22;13304;48.464;8.712;2024-03-07T07:29:40;7.50;90.10
25352;DHT22;13304;48.464;8.712;2024-03-07T07:32:07;7.60;90.20
25352;DHT22;13304;48.464;8.712;2024-03-07T07:34:33;7.60;90.20
25352;DHT22;13304;48.464;8.712;2024-03-07T07:36:59;7.60;89.50
25352;DHT22;13304;48.464;8.712;2024-03-07T07:39:25;7.60;90.00
25352;DHT22;13304;48.464;8.712;2024-03-07T07:41:50;7.50;89.10
25352;DHT22;13304;48.464;8.712;2024-03-07T07:44:16;7.50;89.60
25352;DHT22;13304;48.464;8.712;2024-03-07T07:46:42;7.50;89.20
25352;DHT22;13304;48.464;8.712;2024-03-07T07:49:09;7.50;89.20
25352;DHT22;13304;48.464;8.712;2024-03-07T07:51:34;7.50;89.50
25352;DHT22;13304;48.464;8.712;2024-03-07T07:54:00;7.50;89.10
25352;DHT22;13304;48.464;8.712;2024-03-07T07:56:26;7.40;88.70
25352;DHT22;13304;48.464;8.712;2024-03-07T07:58:54;7.40;88.30
25352;DHT22;13304;48.464;8.712;2024-03-07T08:01:19;7.40;88.60
25352;DHT22;13304;48.464;8.712;2024-03-07T08:03:45;7.50;89.40
25352;DHT22;13304;48.464;8.712;2024-03-07T08:06:11;7.40;88.80
25352;DHT22;13304;48.464;8.712;2024-03-07T08:08:36;7.30;88.20
25352;DHT22;13304;48.464;8.712;2024-03-07T08:11:02;7.40;88.20
25352;DHT22;13304;48.464;8.712;2024-03-07T08:13:28;7.30;88.70
25352;DHT22;13304;48.464;8.712;2024-03-07T08:15:54;7.40;88.50
25352;DHT22;13304;48.464;8.712;2024-03-07T08:18:20;7.30;87.50
25352;DHT22;13304;48.464;8.712;2024-03-07T08:20:46;7.40;88.70
25352;DHT22;13304;48.464;8.712;2024-03-07T08:23:12;7.40;89.20
25352;DHT22;13304;48.464;8.712;2024-03-07T08:25:40;7.40;89.30
25352;DHT22;13304;48.464;8.712;2024-03-07T08:28:06;7.40;88.60
25352;DHT22;13304;48.464;8.712;2024-03-07T08:30:32;7.40;88.60
25352;DHT22;13304;48.464;8.712;2024-03-07T08:32:58;7.40;87.60
25352;DHT22;13304;48.464;8.712;2024-03-07T08:35:30;7.40;88.40
25352;DHT22;13304;48.464;8.712;2024-03-07T08:37:56;7.40;89.10
25352;DHT22;13304;48.464;8.712;2024-03-07T08:40:27;7.40;88.30
25352;DHT22;13304;48.464;8.712;2024-03-07T08:42:56;7.40;88.80
25352;DHT22;13304;48.464;8.712;2024-03-07T08:45:28;7.40;88.20
25352;DHT22;13304;48.464;8.712;2024-03-07T08:47:56;7.40;90.00
25352;DHT22;13304;48.464;8.712;2024-03-07T08:50:23;7.40;88.50
25352;DHT22;13304;48.464;8.712;2024-03-07T08:52:49;7.40;88.30
25352;DHT22;13304;48.464;8.712;2024-03-07T08:55:16;7.40;88.30
25352;DHT22;13304;48.464;8.712;2024-03-07T08:57:43;7.50;89.00
25352;DHT22;13304;48.464;8.712;2024-03-07T09:00:14;7.60;90.10
25352;DHT22;13304;48.464;8.712;2024-03-07T09:02:57;7.60;90.00
25352;DHT22;13304;48.464;8.712;2024-03-07T09:05:23;7.60;89.90
25352;DHT22;13304;48.464;8.712;2024-03-07T09:07:53;7.60;90.20
25352;DHT22;13304;48.464;8.712;2024-03-07T09:10:19;7.70;89.40
25352;DHT22;13304;48.464;8.712;2024-03-07T09:12:46;7.70;90.30
25352;DHT22;13304;48.464;8.712;2024-03-07T09:15:14;7.70;90.00
25352;DHT22;13304;48.464;8.712;2024-03-07T09:17:41;7.70;89.90
25352;DHT22;13304;48.464;8.712;2024-03-07T09:20:08;7.80;89.90
25352;DHT22;13304;48.464;8.712;2024-03-07T09:22:43;7.80;89.00
25352;DHT22;13304;48.464;8.712;2024-03-07T09:25:10;7.80;89.40
25352;DHT22;13304;48.464;8.712;2024-03-07T09:27:36;7.80;89.40
25352;DHT22;13304;48.464;8.712;2024-03-07T09:30:03;7.80;89.30
25352;DHT22;13304;48.464;8.712;2024-03-07T09:32:29;7.90;89.40
25352;DHT22;13304;48.464;8.712;2024-03-07T09:34:58;7.90;90.00
25352;DHT22;13304;48.464;8.712;2024-03-07T09:37:24;7.90;88.70
25352;DHT22;13304;48.464;8.712;2024-03-07T09:39:49;7.90;89.30
25352;DHT22;13304;48.464;8.712;2024-03-07T09:42:17;7.90;88.10
25352;DHT22;13304;48.464;8.712;2024-03-07T09:44:44;7.80;87.70
25352;DHT22;13304;48.464;8.712;2024-03-07T09:47:10;7.90;88.50
25352;DHT22;13304;48.464;8.712;2024-03-07T09:49:37;7.90;88.90
25352;DHT22;13304;48.464;8.712;2024-03-07T09:52:07;7.90;89.40
25352;DHT22;13304;48.464;8.712;2024-03-07T09:54:37;7.90;89.70
25352;DHT22;13304;48.464;8.712;2024-03-07T09:57:06;8.00;90.20
25352;DHT22;13304;48.464;8.712;2024-03-07T09:59:35;8.00;90.00
25352;DHT22;13304;48.464;8.712;2024-03-07T10:02:03;8.00;89.60
25352;DHT22;13304;48.464;8.712;2024-03-07T10:04:51;8.00;89.90
25352;DHT22;13304;48.464;8.712;2024-03-07T10:07:19;8.00;89.50
25352;DHT22;13304;48.464;8.712;2024-03-07T10:09:45;8.10;90.20
25352;DHT22;13304;48.464;8.712;2024-03-07T10:12:11;8.10;90.30
25352;DHT22;13304;48.464;8.712;2024-03-07T10:14:48;8.20;90.10
25352;DHT22;13304;48.464;8.712;2024-03-07T10:17:16;8.20;89.50
25352;DHT22;13304;48.464;8.712;2024-03-07T10:19:42;8.20;89.20
25352;DHT22;13304;48.464;8.712;2024-03-07T10:22:07;8.30;90.00
25352;DHT22;13304;48.464;8.712;2024-03-07T10:24:33;8.30;90.10
25352;DHT22;13304;48.464;8.712;2024-03-07T10:27:00;8.30;88.90
25352;DHT22;13304;48.464;8.712;2024-03-07T10:29:26;8.30;89.80
25352;DHT22;13304;48.464;8.712;2024-03-07T10:31:52;8.30;89.80
25352;DHT22;13304;48.464;8.712;2024-03-07T10:34:18;8.30;89.40
25352;DHT22;13304;48.464;8.712;2024-03-07T10:36:44;8.40;89.80
25352;DHT22;13304;48.464;8.712;2024-03-07T10:39:11;8.40;90.20
25352;DHT22;13304;48.464;8.712;2024-03-07T10:41:45;8.40;90.20
25352;DHT22;13304;48.464;8.712;2024-03-07T10:44:27;8.40;90.10
25352;DHT22;13304;48.464;8.712;2024-03-07T10:46:55;8.40;90.20
25352;DHT22;13304;48.464;8.712;2024-03-07T10:49:25;8.50;90.10
25352;DHT22;13304;48.464;8.712;2024-03-07T10:52:34;8.50;90.00
25352;DHT22;13304;48.464;8.712;2024-03-07T10:55:23;8.40;88.60
25352;DHT22;13304;48.464;8.712;2024-03-07T10:58:01;8.40;88.50
25352;DHT22;13304;48.464;8.712;2024-03-07T11:00:29;8.50;89.90
25352;DHT22;13304;48.464;8.712;2024-03-07T11:03:02;8.50;90.00
25352;DHT22;13304;48.464;8.712;2024-03-07T11:05:32;8.50;90.00
25352;DHT22;13304;48.464;8.712;2024-03-07T11:08:00;8.60;90.10
25352;DHT22;13304;48.464;8.712;2024-03-07T11:10:30;8.60;90.20
25352;DHT22;13304;48.464;8.712;2024-03-07T11:12:57;8.60;90.20
25352;DHT22;13304;48.464;8.712;2024-03-07T11:15:24;8.70;90.30
25352;DHT22;13304;48.464;8.712;2024-03-07T11:17:54;8.70;90.20
25352;DHT22;13304;48.464;8.712;2024-03-07T11:20:24;8.70;90.30
25352;DHT22;13304;48.464;8.712;2024-03-07T11:22:50;8.80;90.50
25352;DHT22;13304;48.464;8.712;2024-03-07T11:25:22;8.80;90.40
25352;DHT22;13304;48.464;8.712;2024-03-07T11:27:53;8.90;90.20
25352;DHT22;13304;48.464;8.712;2024-03-07T11:30:21;8.80;89.00
25352;DHT22;13304;48.464;8.712;2024-03-07T11:32:48;8.90;90.00
25352;DHT22;13304;48.464;8.712;2024-03-07T11:35:16;9.00;90.20
25352;DHT22;13304;48.464;8.712;2024-03-07T11:37:43;9.00;89.90
25352;DHT22;13304;48.464;8.712;2024-03-07T11:42:54;9.00;89.50
25352;DHT22;13304;48.464;8.712;2024-03-07T11:45:25;9.00;89.10
25352;DHT22;13304;48.464;8.712;2024-03-07T11:47:57;9.00;89.40
25352;DHT22;13304;48.464;8.712;2024-03-07T11:50:41;9.00;88.30
25352;DHT22;13304;48.464;8.712;2024-03-07T11:53:09;9.00;89.00
25352;DHT22;13304;48.464;8.712;2024-03-07T11:55:35;9.00;88.80
25352;DHT22;13304;48.464;8.712;2024-03-07T11:58:14;8.90;89.20
25352;DHT22;13304;48.464;8.712;2024-03-07T12:00:45;8.90;88.40
25352;DHT22;13304;48.464;8.712;2024-03-07T12:03:16;8.80;88.60
25352;DHT22;13304;48.464;8.712;2024-03-07T12:05:51;8.80;89.10
25352;DHT22;13304;48.464;8.712;2024-03-07T12:08:17;8.70;88.90
25352;DHT22;13304;48.464;8.712;2024-03-07T12:10:44;8.70;89.10
25352;DHT22;13304;48.464;8.712;2024-03-07T12:13:11;8.60;88.80
25352;DHT22;13304;48.464;8.712;2024-03-07T12:15:38;8.60;88.90
25352;DHT22;13304;48.464;8.712;2024-03-07T12:18:05;8.60;89.60
25352;DHT22;13304;48.464;8.712;2024-03-07T12:20:38;8.50;89.50
25352;DHT22;13304;48.464;8.712;2024-03-07T12:23:05;8.50;89.80
25352;DHT22;13304;48.464;8.712;2024-03-07T12:25:39;8.60;90.10
25352;DHT22;13304;48.464;8.712;2024-03-07T12:28:11;8.60;90.40
25352;DHT22;13304;48.464;8.712;2024-03-07T12:30:57;8.60;90.50
25352;DHT22;13304;48.464;8.712;2024-03-07T12:33:23;8.60;90.00
25352;DHT22;13304;48.464;8.712;2024-03-07T12:35:52;8.80;90.50
25352;DHT22;13304;48.464;8.712;2024-03-07T12:38:18;8.80;90.30
25352;DHT22;13304;48.464;8.712;2024-03-07T12:40:45;8.90;90.30
25352;DHT22;13304;48.464;8.712;2024-03-07T12:43:18;8.80;88.10
25352;DHT22;13304;48.464;8.712;2024-03-07T12:45:49;8.80;88.00
25352;DHT22;13304;48.464;8.712;2024-03-07T12:48:15;8.90;88.30
25352;DHT22;13304;48.464;8.712;2024-03-07T12:50:42;8.90;88.20
25352;DHT22;13304;48.464;8.712;2024-03-07T12:53:10;8.90;88.30
25352;DHT22;13304;48.464;8.712;2024-03-07T12:55:40;8.90;87.80
25352;DHT22;13304;48.464;8.712;2024-03-07T12:58:09;9.00;88.00
25352;DHT22;13304;48.464;8.712;2024-03-07T13:00:39;9.00;88.00
25352;DHT22;13304;48.464;8.712;2024-03-07T13:03:07;9.00;88.50
25352;DHT22;13304;48.464;8.712;2024-03-07T13:05:33;9.00;88.00
25352;DHT22;13304;48.464;8.712;2024-03-07T13:07:59;9.00;88.20
25352;DHT22;13304;48.464;8.712;2024-03-07T13:10:25;9.00;88.10
25352;DHT22;13304;48.464;8.712;2024-03-07T13:12:50;9.00;87.00
25352;DHT22;13304;48.464;8.712;2024-03-07T13:15:18;9.00;86.90
25352;DHT22;13304;48.464;8.712;2024-03-07T13:17:44;9.00;87.40
25352;DHT22;13304;48.464;8.712;2024-03-07T13:20:11;9.00;87.10
25352;DHT22;13304;48.464;8.712;2024-03-07T13:22:44;9.00;86.50
25352;DHT22;13304;48.464;8.712;2024-03-07T13:25:20;9.00;86.70
25352;DHT22;13304;48.464;8.712;2024-03-07T13:27:59;9.00;86.90
25352;DHT22;13304;48.464;8.712;2024-03-07T13:30:26;9.00;88.20
25352;DHT22;13304;48.464;8.712;2024-03-07T13:32:59;9.10;89.40
25352;DHT22;13304;48.464;8.712;2024-03-07T13:35:25;9.10;89.20
25352;DHT22;13304;48.464;8.712;2024-03-07T13:37:52;9.20;89.60
25352;DHT22;13304;48.464;8.712;2024-03-07T13:40:25;9.30;89.70
25352;DHT22;13304;48.464;8.712;2024-03-07T13:42:56;9.40;89.60
25352;DHT22;13304;48.464;8.712;2024-03-07T13:45:41;9.40;89.40
25352;DHT22;13304;48.464;8.712;2024-03-07T13:48:10;9.50;89.30
25352;DHT22;13304;48.464;8.712;2024-03-07T13:50:38;9.60;89.40
25352;DHT22;13304;48.464;8.712;2024-03-07T13:53:06;9.60;89.10
25352;DHT22;13304;48.464;8.712;2024-03-07T14:06:57;9.90;87.90
25352;DHT22;13304;48.464;8.712;2024-03-07T14:18:14;9.90;86.30
25352;DHT22;13304;48.464;8.712;2024-03-07T14:32:12;9.80;85.40
25352;DHT22;13304;48.464;8.712;2024-03-07T14:35:09;9.80;85.70
25352;DHT22;13304;48.464;8.712;2024-03-07T14:38:01;9.70;83.80
25352;DHT22;13304;48.464;8.712;2024-03-07T14:40:30;9.70;84.40
25352;DHT22;13304;48.464;8.712;2024-03-07T14:43:00;9.70;85.70
25352;DHT22;13304;48.464;8.712;2024-03-07T14:45:35;9.60;85.20
25352;DHT22;13304;48.464;8.712;2024-03-07T14:48:01;9.50;84.70
25352;DHT22;13304;48.464;8.712;2024-03-07T14:50:30;9.50;85.40
25352;DHT22;13304;48.464;8.712;2024-03-07T14:52:58;9.50;85.10
25352;DHT22;13304;48.464;8.712;2024-03-07T14:55:24;9.40;85.50
25352;DHT22;13304;48.464;8.712;2024-03-07T14:57:50;9.40;85.00
25352;DHT22;13304;48.464;8.712;2024-03-07T15:00:16;9.30;85.60
25352;DHT22;13304;48.464;8.712;2024-03-07T15:02:49;9.40;86.60
25352;DHT22;13304;48.464;8.712;2024-03-07T15:05:15;9.40;86.60
25352;DHT22;13304;48.464;8.712;2024-03-07T15:07:52;9.40;87.30
25352;DHT22;13304;48.464;8.712;2024-03-07T15:10:27;9.40;86.50
25352;DHT22;13304;48.464;8.712;2024-03-07T15:12:53;9.40;86.70
25352;DHT22;13304;48.464;8.712;2024-03-07T15:15:19;9.40;85.90
25352;DHT22;13304;48.464;8.712;2024-03-07T15:17:48;9.40;85.80
25352;DHT22;13304;48.464;8.712;2024-03-07T15:20:14;9.40;86.10
25352;DHT22;13304;48.464;8.712;2024-03-07T15:23:06;9.40;86.20
25352;DHT22;13304;48.464;8.712;2024-03-07T15:25:32;9.40;85.80
25352;DHT22;13304;48.464;8.712;2024-03-07T15:27:59;9.40;86.50
25352;DHT22;13304;48.464;8.712;2024-03-07T15:30:26;9.40;86.30
25352;DHT22;13304;48.464;8.712;2024-03-07T15:32:58;9.40;86.50
25352;DHT22;13304;48.464;8.712;2024-03-07T15:35:25;9.40;86.50
25352;DHT22;13304;48.464;8.712;2024-03-07T15:37:52;9.40;86.30
25352;DHT22;13304;48.464;8.712;2024-03-07T15:40:20;9.40;86.10
25352;DHT22;13304;48.464;8.712;2024-03-07T15:42:56;9.40;86.10
25352;DHT22;13304;48.464;8.712;2024-03-07T15:45:27;9.30;85.80
25352;DHT22;13304;48.464;8.712;2024-03-07T15:47:53;9.40;86.40
25352;DHT22;13304;48.464;8.712;2024-03-07T15:50:21;9.40;86.90
25352;DHT22;13304;48.464;8.712;2024-03-07T15:52:48;9.40;87.10
25352;DHT22;13304;48.464;8.712;2024-03-07T15:55:14;9.40;87.00
25352;DHT22;13304;48.464;8.712;2024-03-07T15:57:51;9.40;86.60
25352;DHT22;13304;48.464;8.712;2024-03-07T16:00:22;9.40;87.30
25352;DHT22;13304;48.464;8.712;2024-03-07T16:02:57;9.40;86.70
25352;DHT22;13304;48.464;8.712;2024-03-07T16:05:27;9.40;86.70
25352;DHT22;13304;48.464;8.712;2024-03-07T16:07:54;9.40;86.40
25352;DHT22;13304;48.464;8.712;2024-03-07T16:10:22;9.40;86.70
25352;DHT22;13304;48.464;8.712;2024-03-07T16:12:52;9.40;86.30
25352;DHT22;13304;48.464;8.712;2024-03-07T16:15:19;9.30;86.10
25352;DHT22;13304;48.464;8.712;2024-03-07T16:17:47;9.30;86.60
25352;DHT22;13304;48.464;8.712;2024-03-07T16:20:13;9.30;86.30
25352;DHT22;13304;48.464;8.712;2024-03-07T16:22:46;9.30;86.60
25352;DHT22;13304;48.464;8.712;2024-03-07T16:25:15;9.20;86.30